sensor_id;sensor_type;location;lat;lon;timestamp;pressure;altitude;pressure_sealevel;temperature;humidity
9538;BME280;4807;48.024;11.726;2023-05-29T00:01:32;94936.19;;;9.57;72.69
9538;BME280;4807;48.024;11.726;2023-05-29T00:04:43;94942.31;;;9.57;72.79
9538;BME280;4807;48.024;11.726;2023-05-29T00:07:53;94936.16;;;9.50;72.63
9538;BME280;4807;48.024;11.726;2023-05-29T00:11:01;94937.78;;;9.51;73.28
9538;BME280;4807;48.024;11.726;2023-05-29T00:14:09;94944.22;;;9.64;72.62
9538;BME280;4807;48.024;11.726;2023-05-29T00:17:21;94936.94;;;9.44;73.37
9538;BME280;4807;48.024;11.726;2023-05-29T00:20:30;94940.78;;;9.70;72.08
9538;BME280;4807;48.024;11.726;2023-05-29T00:23:42;94935.53;;;9.48;73.01
9538;BME280;4807;48.024;11.726;2023-05-29T00:26:52;94930.53;;;9.32;72.97
9538;BME280;4807;48.024;11.726;2023-05-29T00:30:01;94930.25;;;9.27;73.46
9538;BME280;4807;48.024;11.726;2023-05-29T00:33:09;94934.38;;;9.30;73.69
9538;BME280;4807;48.024;11.726;2023-05-29T00:36:18;94937.81;;;9.24;74.07
9538;BME280;4807;48.024;11.726;2023-05-29T00:39:28;94928.56;;;9.19;74.01
9538;BME280;4807;48.024;11.726;2023-05-29T00:42:37;94930.94;;;9.08;74.26
9538;BME280;4807;48.024;11.726;2023-05-29T00:45:45;94930.34;;;9.12;74.20
9538;BME280;4807;48.024;11.726;2023-05-29T00:48:54;94926.00;;;9.05;74.57
9538;BME280;4807;48.024;11.726;2023-05-29T00:52:05;94927.25;;;9.09;74.00
9538;BME280;4807;48.024;11.726;2023-05-29T00:55:16;94923.25;;;8.92;75.23
9538;BME280;4807;48.024;11.726;2023-05-29T00:58:25;94930.72;;;8.82;75.22
9538;BME280;4807;48.024;11.726;2023-05-29T01:01:34;94916.47;;;8.89;74.90
9538;BME280;4807;48.024;11.726;2023-05-29T01:04:45;94921.28;;;8.79;75.20
9538;BME280;4807;48.024;11.726;2023-05-29T01:07:54;94926.41;;;8.80;75.91
9538;BME280;4807;48.024;11.726;2023-05-29T01:11:11;94924.13;;;8.77;75.78
9538;BME280;4807;48.024;11.726;2023-05-29T01:14:31;94928.69;;;8.84;75.83
9538;BME280;4807;48.024;11.726;2023-05-29T01:22:54;94930.91;;;8.80;76.07
9538;BME280;4807;48.024;11.726;2023-05-29T01:26:45;94929.44;;;8.77;75.49
9538;BME280;4807;48.024;11.726;2023-05-29T01:29:55;94934.69;;;8.71;75.75
9538;BME280;4807;48.024;11.726;2023-05-29T01:33:09;94927.91;;;8.68;75.76
9538;BME280;4807;48.024;11.726;2023-05-29T01:36:18;94928.44;;;8.57;76.21
9538;BME280;4807;48.024;11.726;2023-05-29T01:39:31;94932.16;;;8.63;76.53
9538;BME280;4807;48.024;11.726;2023-05-29T01:42:43;94925.78;;;8.57;76.28
9538;BME280;4807;48.024;11.726;2023-05-29T01:45:52;94926.03;;;8.62;76.54
9538;BME280;4807;48.024;11.726;2023-05-29T01:49:00;94924.00;;;8.64;76.02
9538;BME280;4807;48.024;11.726;2023-05-29T01:52:10;94929.81;;;8.53;76.46
9538;BME280;4807;48.024;11.726;2023-05-29T01:55:19;94930.75;;;8.46;76.16
9538;BME280;4807;48.024;11.726;2023-05-29T01:58:30;94936.53;;;8.49;76.49
9538;BME280;4807;48.024;11.726;2023-05-29T02:01:39;94933.09;;;8.34;77.15
9538;BME280;4807;48.024;11.726;2023-05-29T02:04:48;94927.28;;;8.30;78.10
9538;BME280;4807;48.024;11.726;2023-05-29T02:07:56;94927.47;;;8.29;77.62
9538;BME280;4807;48.024;11.726;2023-05-29T02:11:05;94930.13;;;8.29;78.28
9538;BME280;4807;48.024;11.726;2023-05-29T02:14:15;94923.81;;;8.30;77.79
9538;BME280;4807;48.024;11.726;2023-05-29T02:17:23;94928.69;;;8.41;76.59
9538;BME280;4807;48.024;11.726;2023-05-29T02:20:33;94922.56;;;8.26;76.93
9538;BME280;4807;48.024;11.726;2023-05-29T02:23:41;94924.69;;;8.16;77.62
9538;BME280;4807;48.024;11.726;2023-05-29T02:26:50;94920.97;;;8.10;77.84
9538;BME280;4807;48.024;11.726;2023-05-29T02:30:00;94919.31;;;8.09;78.08
9538;BME280;4807;48.024;11.726;2023-05-29T02:33:08;94913.53;;;8.05;78.20
9538;BME280;4807;48.024;11.726;2023-05-29T02:36:17;94918.59;;;8.00;78.29
9538;BME280;4807;48.024;11.726;2023-05-29T02:39:26;94916.69;;;7.94;78.88
9538;BME280;4807;48.024;11.726;2023-05-29T02:42:34;94911.25;;;8.17;77.17
9538;BME280;4807;48.024;11.726;2023-05-29T02:45:45;94915.13;;;8.00;77.44
9538;BME280;4807;48.024;11.726;2023-05-29T02:48:55;94920.06;;;7.88;77.87
9538;BME280;4807;48.024;11.726;2023-05-29T02:52:04;94915.88;;;7.64;78.84
9538;BME280;4807;48.024;11.726;2023-05-29T02:55:12;94907.38;;;7.40;79.76
9538;BME280;4807;48.024;11.726;2023-05-29T02:58:20;94918.53;;;7.35;80.05
9538;BME280;4807;48.024;11.726;2023-05-29T03:01:30;94911.78;;;7.33;80.73
9538;BME280;4807;48.024;11.726;2023-05-29T03:04:40;94915.34;;;7.40;80.27
9538;BME280;4807;48.024;11.726;2023-05-29T03:07:48;94923.00;;;7.49;80.25
9538;BME280;4807;48.024;11.726;2023-05-29T03:10:56;94920.38;;;7.35;81.51
9538;BME280;4807;48.024;11.726;2023-05-29T03:14:05;94920.19;;;7.36;81.07
9538;BME280;4807;48.024;11.726;2023-05-29T03:17:15;94916.78;;;7.57;80.09
9538;BME280;4807;48.024;11.726;2023-05-29T03:20:23;94917.09;;;7.62;79.22
9538;BME280;4807;48.024;11.726;2023-05-29T03:23:36;94920.72;;;7.76;78.66
9538;BME280;4807;48.024;11.726;2023-05-29T03:26:45;94925.13;;;7.69;79.38
9538;BME280;4807;48.024;11.726;2023-05-29T03:29:54;94928.59;;;7.69;78.92
9538;BME280;4807;48.024;11.726;2023-05-29T03:33:06;94924.66;;;7.65;78.76
9538;BME280;4807;48.024;11.726;2023-05-29T03:36:35;94935.91;;;7.38;80.05
9538;BME280;4807;48.024;11.726;2023-05-29T03:39:44;94929.88;;;7.44;80.16
9538;BME280;4807;48.024;11.726;2023-05-29T03:42:53;94930.97;;;7.49;79.82
9538;BME280;4807;48.024;11.726;2023-05-29T03:46:02;94933.34;;;7.44;80.03
9538;BME280;4807;48.024;11.726;2023-05-29T03:49:14;94936.91;;;7.51;80.88
9538;BME280;4807;48.024;11.726;2023-05-29T03:52:23;94948.88;;;7.62;79.77
9538;BME280;4807;48.024;11.726;2023-05-29T03:55:34;94938.56;;;7.67;80.42
9538;BME280;4807;48.024;11.726;2023-05-29T03:58:44;94943.31;;;7.86;78.40
9538;BME280;4807;48.024;11.726;2023-05-29T04:01:54;94943.00;;;7.81;77.71
9538;BME280;4807;48.024;11.726;2023-05-29T04:05:05;94949.69;;;7.77;78.36
9538;BME280;4807;48.024;11.726;2023-05-29T04:08:14;94950.16;;;7.66;79.05
9538;BME280;4807;48.024;11.726;2023-05-29T04:11:25;94955.19;;;7.76;79.53
9538;BME280;4807;48.024;11.726;2023-05-29T04:14:34;94963.88;;;7.84;79.39
9538;BME280;4807;48.024;11.726;2023-05-29T04:17:42;94961.13;;;7.92;78.96
9538;BME280;4807;48.024;11.726;2023-05-29T04:20:53;94972.88;;;8.04;79.47
9538;BME280;4807;48.024;11.726;2023-05-29T04:24:02;94967.47;;;8.13;78.92
9538;BME280;4807;48.024;11.726;2023-05-29T04:27:10;94986.66;;;8.29;78.37
9538;BME280;4807;48.024;11.726;2023-05-29T04:30:20;94980.97;;;8.47;78.37
9538;BME280;4807;48.024;11.726;2023-05-29T04:33:28;94975.44;;;8.63;76.66
9538;BME280;4807;48.024;11.726;2023-05-29T04:36:38;94986.94;;;8.70;76.05
9538;BME280;4807;48.024;11.726;2023-05-29T04:39:51;94987.09;;;8.84;75.95
9538;BME280;4807;48.024;11.726;2023-05-29T04:43:04;94979.25;;;8.97;75.55
9538;BME280;4807;48.024;11.726;2023-05-29T04:46:29;94983.84;;;9.09;75.76
9538;BME280;4807;48.024;11.726;2023-05-29T04:49:40;94983.41;;;9.27;75.56
9538;BME280;4807;48.024;11.726;2023-05-29T04:52:51;94982.28;;;9.43;75.93
9538;BME280;4807;48.024;11.726;2023-05-29T04:55:59;94987.38;;;9.66;75.20
9538;BME280;4807;48.024;11.726;2023-05-29T04:59:09;94991.19;;;9.84;74.75
9538;BME280;4807;48.024;11.726;2023-05-29T05:02:17;94987.66;;;10.12;73.40
9538;BME280;4807;48.024;11.726;2023-05-29T05:05:25;94985.53;;;10.28;72.64
9538;BME280;4807;48.024;11.726;2023-05-29T05:08:39;94991.44;;;10.30;73.09
9538;BME280;4807;48.024;11.726;2023-05-29T05:11:48;94983.75;;;10.49;73.03
9538;BME280;4807;48.024;11.726;2023-05-29T05:14:57;94990.38;;;10.66;73.44
9538;BME280;4807;48.024;11.726;2023-05-29T05:18:06;94995.34;;;10.89;72.80
9538;BME280;4807;48.024;11.726;2023-05-29T05:21:17;95003.16;;;11.03;73.41
9538;BME280;4807;48.024;11.726;2023-05-29T05:24:27;94999.06;;;11.07;73.10
9538;BME280;4807;48.024;11.726;2023-05-29T05:27:36;95003.00;;;11.25;73.03
9538;BME280;4807;48.024;11.726;2023-05-29T05:30:45;95002.16;;;11.44;73.06
9538;BME280;4807;48.024;11.726;2023-05-29T05:33:53;94995.81;;;11.65;72.38
9538;BME280;4807;48.024;11.726;2023-05-29T05:37:03;95000.34;;;11.91;69.34
9538;BME280;4807;48.024;11.726;2023-05-29T05:40:13;95003.81;;;12.04;69.74
9538;BME280;4807;48.024;11.726;2023-05-29T05:43:35;95003.53;;;12.32;69.01
9538;BME280;4807;48.024;11.726;2023-05-29T05:46:51;95012.94;;;12.41;69.97
9538;BME280;4807;48.024;11.726;2023-05-29T05:49:59;95010.88;;;12.43;68.00
9538;BME280;4807;48.024;11.726;2023-05-29T05:53:09;95012.16;;;12.34;69.39
9538;BME280;4807;48.024;11.726;2023-05-29T05:56:19;95009.69;;;12.39;70.36
9538;BME280;4807;48.024;11.726;2023-05-29T05:59:27;95013.69;;;12.61;70.51
9538;BME280;4807;48.024;11.726;2023-05-29T06:02:35;95009.75;;;13.09;69.03
9538;BME280;4807;48.024;11.726;2023-05-29T06:05:44;95010.75;;;13.52;65.36
9538;BME280;4807;48.024;11.726;2023-05-29T06:08:53;95012.66;;;14.56;62.45
9538;BME280;4807;48.024;11.726;2023-05-29T06:12:06;95014.38;;;16.35;55.81
9538;BME280;4807;48.024;11.726;2023-05-29T06:15:22;95011.59;;;16.93;54.06
9538;BME280;4807;48.024;11.726;2023-05-29T06:18:30;95015.03;;;17.17;55.07
9538;BME280;4807;48.024;11.726;2023-05-29T06:21:38;95004.09;;;19.61;46.76
9538;BME280;4807;48.024;11.726;2023-05-29T06:24:47;95007.19;;;21.53;43.46
9538;BME280;4807;48.024;11.726;2023-05-29T06:27:57;95006.13;;;22.91;39.73
9538;BME280;4807;48.024;11.726;2023-05-29T06:31:05;95005.50;;;21.27;40.70
9538;BME280;4807;48.024;11.726;2023-05-29T06:34:14;95010.22;;;23.53;38.52
9538;BME280;4807;48.024;11.726;2023-05-29T06:37:23;95012.59;;;24.71;35.44
9538;BME280;4807;48.024;11.726;2023-05-29T06:40:31;95015.13;;;21.03;40.27
9538;BME280;4807;48.024;11.726;2023-05-29T06:43:42;95022.56;;;23.20;37.61
9538;BME280;4807;48.024;11.726;2023-05-29T06:46:51;95021.78;;;24.81;36.82
9538;BME280;4807;48.024;11.726;2023-05-29T06:50:00;95018.72;;;25.96;32.24
9538;BME280;4807;48.024;11.726;2023-05-29T06:53:09;95014.31;;;26.00;34.17
9538;BME280;4807;48.024;11.726;2023-05-29T06:56:30;95011.13;;;24.55;34.59
9538;BME280;4807;48.024;11.726;2023-05-29T06:59:44;95020.22;;;26.07;33.71
9538;BME280;4807;48.024;11.726;2023-05-29T07:02:52;95022.16;;;26.90;33.22
9538;BME280;4807;48.024;11.726;2023-05-29T07:06:01;95023.19;;;27.63;31.32
9538;BME280;4807;48.024;11.726;2023-05-29T07:09:11;95014.06;;;24.88;33.48
9538;BME280;4807;48.024;11.726;2023-05-29T07:12:21;95024.16;;;24.58;34.88
9538;BME280;4807;48.024;11.726;2023-05-29T07:15:31;95021.19;;;25.13;34.26
9538;BME280;4807;48.024;11.726;2023-05-29T07:18:40;95027.88;;;21.95;40.08
9538;BME280;4807;48.024;11.726;2023-05-29T07:21:51;95025.47;;;23.39;37.32
9538;BME280;4807;48.024;11.726;2023-05-29T07:25:01;95028.91;;;25.72;33.80
9538;BME280;4807;48.024;11.726;2023-05-29T07:28:10;95031.59;;;22.95;36.50
9538;BME280;4807;48.024;11.726;2023-05-29T07:31:30;95023.47;;;24.43;36.63
9538;BME280;4807;48.024;11.726;2023-05-29T07:34:38;95030.53;;;26.29;33.96
9538;BME280;4807;48.024;11.726;2023-05-29T07:37:48;95033.06;;;26.58;32.97
9538;BME280;4807;48.024;11.726;2023-05-29T07:40:59;95035.19;;;24.43;34.11
9538;BME280;4807;48.024;11.726;2023-05-29T07:44:10;95037.47;;;24.94;33.26
9538;BME280;4807;48.024;11.726;2023-05-29T07:47:20;95035.50;;;22.43;37.69
9538;BME280;4807;48.024;11.726;2023-05-29T07:50:29;95045.53;;;22.28;37.59
9538;BME280;4807;48.024;11.726;2023-05-29T07:53:37;95044.97;;;22.81;39.42
9538;BME280;4807;48.024;11.726;2023-05-29T07:56:46;95045.22;;;22.85;36.28
9538;BME280;4807;48.024;11.726;2023-05-29T07:59:56;95046.34;;;22.18;39.80
9538;BME280;4807;48.024;11.726;2023-05-29T08:03:06;95041.38;;;24.15;36.75
9538;BME280;4807;48.024;11.726;2023-05-29T08:06:54;95034.63;;;22.94;36.53
9538;BME280;4807;48.024;11.726;2023-05-29T08:10:04;95034.97;;;23.95;36.31
9538;BME280;4807;48.024;11.726;2023-05-29T08:13:13;95037.56;;;25.31;35.52
9538;BME280;4807;48.024;11.726;2023-05-29T08:16:23;95036.81;;;24.73;36.40
9538;BME280;4807;48.024;11.726;2023-05-29T08:19:34;95034.88;;;26.30;33.31
9538;BME280;4807;48.024;11.726;2023-05-29T08:22:42;95030.84;;;25.00;35.21
9538;BME280;4807;48.024;11.726;2023-05-29T08:25:51;95036.09;;;24.62;34.38
9538;BME280;4807;48.024;11.726;2023-05-29T08:28:59;95030.69;;;26.00;31.41
9538;BME280;4807;48.024;11.726;2023-05-29T08:32:08;95041.97;;;23.63;35.77
9538;BME280;4807;48.024;11.726;2023-05-29T08:35:18;95033.72;;;23.18;37.24
9538;BME280;4807;48.024;11.726;2023-05-29T08:38:27;95047.09;;;21.88;39.39
9538;BME280;4807;48.024;11.726;2023-05-29T08:41:47;95036.25;;;22.64;37.80
9538;BME280;4807;48.024;11.726;2023-05-29T08:45:03;95043.63;;;22.18;40.11
9538;BME280;4807;48.024;11.726;2023-05-29T08:48:12;95041.22;;;23.47;35.07
9538;BME280;4807;48.024;11.726;2023-05-29T08:51:27;95037.63;;;22.82;36.94
9538;BME280;4807;48.024;11.726;2023-05-29T08:54:39;95047.69;;;22.61;37.73
9538;BME280;4807;48.024;11.726;2023-05-29T08:57:50;95034.13;;;24.39;34.76
9538;BME280;4807;48.024;11.726;2023-05-29T09:00:59;95046.41;;;24.37;35.45
9538;BME280;4807;48.024;11.726;2023-05-29T09:04:07;95034.94;;;23.46;33.51
9538;BME280;4807;48.024;11.726;2023-05-29T09:07:19;95040.78;;;24.86;33.49
9538;BME280;4807;48.024;11.726;2023-05-29T09:10:27;95042.59;;;24.32;33.00
9538;BME280;4807;48.024;11.726;2023-05-29T09:13:35;95040.84;;;24.13;36.13
9538;BME280;4807;48.024;11.726;2023-05-29T09:16:44;95028.84;;;24.53;31.81
9538;BME280;4807;48.024;11.726;2023-05-29T09:19:52;95045.22;;;23.59;36.53
9538;BME280;4807;48.024;11.726;2023-05-29T09:23:06;95032.91;;;24.21;34.15
9538;BME280;4807;48.024;11.726;2023-05-29T09:26:16;95036.72;;;23.81;32.48
9538;BME280;4807;48.024;11.726;2023-05-29T09:29:25;95041.78;;;24.37;33.70
9538;BME280;4807;48.024;11.726;2023-05-29T09:32:33;95031.16;;;24.36;33.39
9538;BME280;4807;48.024;11.726;2023-05-29T09:35:44;95038.84;;;24.62;34.61
9538;BME280;4807;48.024;11.726;2023-05-29T09:38:54;95044.41;;;24.47;32.86
9538;BME280;4807;48.024;11.726;2023-05-29T09:42:16;95046.84;;;22.91;33.53
9538;BME280;4807;48.024;11.726;2023-05-29T09:45:26;95043.47;;;23.84;36.58
9538;BME280;4807;48.024;11.726;2023-05-29T09:48:37;95037.75;;;23.90;34.19
9538;BME280;4807;48.024;11.726;2023-05-29T09:51:46;95051.19;;;22.82;34.03
9538;BME280;4807;48.024;11.726;2023-05-29T09:54:58;95049.50;;;23.16;33.68
9538;BME280;4807;48.024;11.726;2023-05-29T09:58:07;95054.00;;;23.36;32.84
9538;BME280;4807;48.024;11.726;2023-05-29T10:01:16;95046.16;;;23.89;34.14
9538;BME280;4807;48.024;11.726;2023-05-29T10:04:25;95046.59;;;24.06;33.79
9538;BME280;4807;48.024;11.726;2023-05-29T10:07:37;95050.47;;;23.51;34.07
9538;BME280;4807;48.024;11.726;2023-05-29T10:10:59;95054.25;;;23.45;34.04
9538;BME280;4807;48.024;11.726;2023-05-29T10:14:15;95036.09;;;23.89;33.51
9538;BME280;4807;48.024;11.726;2023-05-29T10:17:32;95043.31;;;24.48;36.97
9538;BME280;4807;48.024;11.726;2023-05-29T10:20:44;95030.19;;;24.55;32.24
9538;BME280;4807;48.024;11.726;2023-05-29T10:23:58;95037.22;;;24.27;31.88
9538;BME280;4807;48.024;11.726;2023-05-29T10:27:07;95029.19;;;24.46;34.13
9538;BME280;4807;48.024;11.726;2023-05-29T10:30:25;95025.09;;;24.44;31.31
9538;BME280;4807;48.024;11.726;2023-05-29T10:33:50;95027.63;;;24.35;33.06
9538;BME280;4807;48.024;11.726;2023-05-29T10:37:06;95027.69;;;24.30;30.50
9538;BME280;4807;48.024;11.726;2023-05-29T10:40:23;95021.94;;;24.94;32.26
9538;BME280;4807;48.024;11.726;2023-05-29T10:43:35;95034.44;;;24.32;30.65
9538;BME280;4807;48.024;11.726;2023-05-29T10:47:06;95035.25;;;24.33;30.14
9538;BME280;4807;48.024;11.726;2023-05-29T10:50:35;95027.06;;;23.45;30.84
9538;BME280;4807;48.024;11.726;2023-05-29T10:53:45;95031.09;;;23.63;35.38
9538;BME280;4807;48.024;11.726;2023-05-29T10:56:57;95029.25;;;23.53;31.56
9538;BME280;4807;48.024;11.726;2023-05-29T11:00:09;95035.34;;;24.18;31.75
9538;BME280;4807;48.024;11.726;2023-05-29T11:03:23;95033.28;;;24.05;31.56
9538;BME280;4807;48.024;11.726;2023-05-29T11:06:36;95017.19;;;23.69;31.67
9538;BME280;4807;48.024;11.726;2023-05-29T11:09:44;95016.41;;;24.42;34.41
9538;BME280;4807;48.024;11.726;2023-05-29T11:12:58;95026.75;;;24.06;30.22
9538;BME280;4807;48.024;11.726;2023-05-29T11:16:13;95039.69;;;23.20;31.13
9538;BME280;4807;48.024;11.726;2023-05-29T11:19:23;95024.75;;;23.82;32.35
9538;BME280;4807;48.024;11.726;2023-05-29T11:22:45;95027.34;;;23.98;32.73
9538;BME280;4807;48.024;11.726;2023-05-29T11:25:59;95032.16;;;24.11;30.95
9538;BME280;4807;48.024;11.726;2023-05-29T11:29:09;95026.00;;;23.95;30.90
9538;BME280;4807;48.024;11.726;2023-05-29T11:32:22;95025.94;;;23.66;30.47
9538;BME280;4807;48.024;11.726;2023-05-29T11:35:34;95032.03;;;23.87;31.07
9538;BME280;4807;48.024;11.726;2023-05-29T11:38:45;95022.41;;;24.05;31.18
9538;BME280;4807;48.024;11.726;2023-05-29T11:41:55;95014.91;;;23.91;31.46
9538;BME280;4807;48.024;11.726;2023-05-29T11:45:12;95025.22;;;23.40;31.83
9538;BME280;4807;48.024;11.726;2023-05-29T11:48:24;95031.59;;;22.95;30.24
9538;BME280;4807;48.024;11.726;2023-05-29T11:51:32;95027.78;;;23.06;34.17
9538;BME280;4807;48.024;11.726;2023-05-29T11:54:42;95027.25;;;23.69;32.49
9538;BME280;4807;48.024;11.726;2023-05-29T11:57:57;95015.72;;;23.87;32.21
9538;BME280;4807;48.024;11.726;2023-05-29T12:01:06;95015.94;;;23.95;31.21
9538;BME280;4807;48.024;11.726;2023-05-29T12:04:17;95018.75;;;23.80;30.00
9538;BME280;4807;48.024;11.726;2023-05-29T12:07:26;95023.22;;;23.66;31.28
9538;BME280;4807;48.024;11.726;2023-05-29T12:10:36;95017.09;;;23.84;30.66
9538;BME280;4807;48.024;11.726;2023-05-29T12:13:56;95018.06;;;24.04;31.61
9538;BME280;4807;48.024;11.726;2023-05-29T12:17:05;95013.06;;;24.21;31.10
9538;BME280;4807;48.024;11.726;2023-05-29T12:20:18;95006.53;;;23.83;31.26
9538;BME280;4807;48.024;11.726;2023-05-29T12:23:28;95005.81;;;24.01;30.94
9538;BME280;4807;48.024;11.726;2023-05-29T12:26:37;95008.34;;;23.92;29.84
9538;BME280;4807;48.024;11.726;2023-05-29T12:29:47;95005.53;;;24.03;30.88
9538;BME280;4807;48.024;11.726;2023-05-29T12:32:56;95004.81;;;23.92;31.26
9538;BME280;4807;48.024;11.726;2023-05-29T12:36:11;95013.97;;;23.62;32.67
9538;BME280;4807;48.024;11.726;2023-05-29T12:39:21;95015.81;;;23.12;31.76
9538;BME280;4807;48.024;11.726;2023-05-29T12:42:32;95015.91;;;23.51;32.81
9538;BME280;4807;48.024;11.726;2023-05-29T12:45:42;95013.97;;;23.62;34.01
9538;BME280;4807;48.024;11.726;2023-05-29T12:48:53;95009.47;;;23.86;31.89
9538;BME280;4807;48.024;11.726;2023-05-29T12:52:07;95012.44;;;23.51;31.65
9538;BME280;4807;48.024;11.726;2023-05-29T12:55:20;95012.97;;;23.43;31.24
9538;BME280;4807;48.024;11.726;2023-05-29T12:58:29;95000.84;;;23.20;31.72
9538;BME280;4807;48.024;11.726;2023-05-29T13:01:38;95009.75;;;23.31;31.93
9538;BME280;4807;48.024;11.726;2023-05-29T13:04:48;94999.13;;;23.39;33.14
9538;BME280;4807;48.024;11.726;2023-05-29T13:07:58;94995.50;;;23.64;32.64
9538;BME280;4807;48.024;11.726;2023-05-29T13:11:08;95011.16;;;23.82;32.36
9538;BME280;4807;48.024;11.726;2023-05-29T13:14:17;95006.97;;;23.95;32.26
9538;BME280;4807;48.024;11.726;2023-05-29T13:17:26;95001.97;;;23.68;33.09
9538;BME280;4807;48.024;11.726;2023-05-29T13:25:30;94995.81;;;23.52;32.46
9538;BME280;4807;48.024;11.726;2023-05-29T13:28:39;94996.03;;;23.66;33.25
9538;BME280;4807;48.024;11.726;2023-05-29T13:31:50;95000.44;;;23.57;32.09
9538;BME280;4807;48.024;11.726;2023-05-29T13:34:59;95003.47;;;23.35;32.90
9538;BME280;4807;48.024;11.726;2023-05-29T13:38:08;95001.72;;;23.05;33.60
9538;BME280;4807;48.024;11.726;2023-05-29T13:41:19;94997.53;;;23.28;33.62
9538;BME280;4807;48.024;11.726;2023-05-29T13:44:28;94970.38;;;23.33;34.09
9538;BME280;4807;48.024;11.726;2023-05-29T13:47:37;94999.50;;;23.12;33.47
9538;BME280;4807;48.024;11.726;2023-05-29T13:50:47;94984.69;;;22.79;33.46
9538;BME280;4807;48.024;11.726;2023-05-29T13:53:56;94986.66;;;22.33;33.57
9538;BME280;4807;48.024;11.726;2023-05-29T13:57:07;94983.94;;;22.33;32.92
9538;BME280;4807;48.024;11.726;2023-05-29T14:00:16;94979.50;;;22.88;33.42
9538;BME280;4807;48.024;11.726;2023-05-29T14:03:25;94981.06;;;23.04;34.56
9538;BME280;4807;48.024;11.726;2023-05-29T14:06:37;94983.84;;;22.89;33.02
9538;BME280;4807;48.024;11.726;2023-05-29T14:09:46;94972.31;;;23.23;34.28
9538;BME280;4807;48.024;11.726;2023-05-29T14:12:56;94973.66;;;23.20;34.37
9538;BME280;4807;48.024;11.726;2023-05-29T14:16:05;94979.50;;;22.88;34.09
9538;BME280;4807;48.024;11.726;2023-05-29T14:19:15;94989.84;;;22.86;33.88
9538;BME280;4807;48.024;11.726;2023-05-29T14:22:24;94978.41;;;22.89;33.52
9538;BME280;4807;48.024;11.726;2023-05-29T14:25:37;94971.25;;;23.18;33.80
9538;BME280;4807;48.024;11.726;2023-05-29T14:28:48;94972.28;;;23.28;31.69
9538;BME280;4807;48.024;11.726;2023-05-29T14:32:03;94987.44;;;23.39;32.37
9538;BME280;4807;48.024;11.726;2023-05-29T14:35:14;94979.31;;;23.34;31.44
9538;BME280;4807;48.024;11.726;2023-05-29T14:38:22;94979.91;;;23.26;31.10
9538;BME280;4807;48.024;11.726;2023-05-29T14:41:31;94975.72;;;22.89;32.09
9538;BME280;4807;48.024;11.726;2023-05-29T14:44:42;94978.34;;;23.04;32.92
9538;BME280;4807;48.024;11.726;2023-05-29T14:47:51;94974.53;;;23.15;32.06
9538;BME280;4807;48.024;11.726;2023-05-29T14:50:59;94975.94;;;22.98;32.26
9538;BME280;4807;48.024;11.726;2023-05-29T14:54:08;94970.69;;;23.27;33.65
9538;BME280;4807;48.024;11.726;2023-05-29T14:57:19;94973.34;;;23.32;31.08
9538;BME280;4807;48.024;11.726;2023-05-29T15:00:29;94972.56;;;23.26;30.88
9538;BME280;4807;48.024;11.726;2023-05-29T15:03:38;94960.31;;;23.34;31.33
9538;BME280;4807;48.024;11.726;2023-05-29T15:06:47;94964.38;;;23.31;33.21
9538;BME280;4807;48.024;11.726;2023-05-29T15:10:11;94963.03;;;23.34;31.34
9538;BME280;4807;48.024;11.726;2023-05-29T15:13:20;94974.94;;;23.38;32.88
9538;BME280;4807;48.024;11.726;2023-05-29T15:16:30;94966.75;;;23.48;31.59
9538;BME280;4807;48.024;11.726;2023-05-29T15:19:38;94970.38;;;23.28;31.19
9538;BME280;4807;48.024;11.726;2023-05-29T16:14:18;94963.63;;;23.20;30.56
9538;BME280;4807;48.024;11.726;2023-05-29T16:17:31;94961.25;;;23.09;31.09
9538;BME280;4807;48.024;11.726;2023-05-29T16:20:44;94965.88;;;23.08;30.88
9538;BME280;4807;48.024;11.726;2023-05-29T16:23:55;94964.78;;;23.09;29.95
9538;BME280;4807;48.024;11.726;2023-05-29T16:27:05;94963.41;;;23.07;30.77
9538;BME280;4807;48.024;11.726;2023-05-29T16:30:17;94960.63;;;23.22;31.07
9538;BME280;4807;48.024;11.726;2023-05-29T16:33:26;94965.91;;;22.98;31.27
9538;BME280;4807;48.024;11.726;2023-05-29T16:36:34;94968.59;;;23.03;31.99
9538;BME280;4807;48.024;11.726;2023-05-29T16:39:43;94963.31;;;23.27;31.80
9538;BME280;4807;48.024;11.726;2023-05-29T16:42:51;94952.19;;;24.69;29.30
9538;BME280;4807;48.024;11.726;2023-05-29T16:46:01;94962.44;;;26.51;26.37
9538;BME280;4807;48.024;11.726;2023-05-29T16:49:12;94960.75;;;29.38;23.47
9538;BME280;4807;48.024;11.726;2023-05-29T16:52:20;94957.44;;;31.17;20.98
9538;BME280;4807;48.024;11.726;2023-05-29T16:55:29;94955.78;;;30.78;20.31
9538;BME280;4807;48.024;11.726;2023-05-29T16:58:37;94962.31;;;30.30;21.13
9538;BME280;4807;48.024;11.726;2023-05-29T17:01:47;94957.63;;;29.96;21.02
9538;BME280;4807;48.024;11.726;2023-05-29T17:04:56;94965.03;;;30.48;19.71
9538;BME280;4807;48.024;11.726;2023-05-29T17:08:09;94968.13;;;31.10;19.67
9538;BME280;4807;48.024;11.726;2023-05-29T17:11:24;94971.75;;;31.90;18.57
9538;BME280;4807;48.024;11.726;2023-05-29T17:14:40;94960.88;;;32.35;18.05
9538;BME280;4807;48.024;11.726;2023-05-29T17:17:49;94965.38;;;31.98;18.42
9538;BME280;4807;48.024;11.726;2023-05-29T17:21:00;94972.34;;;32.58;17.96
9538;BME280;4807;48.024;11.726;2023-05-29T17:24:08;94964.34;;;31.82;18.61
9538;BME280;4807;48.024;11.726;2023-05-29T17:27:17;94976.34;;;30.46;19.89
9538;BME280;4807;48.024;11.726;2023-05-29T17:30:26;94973.34;;;28.24;22.68
9538;BME280;4807;48.024;11.726;2023-05-29T17:33:36;94977.63;;;27.04;23.82
9538;BME280;4807;48.024;11.726;2023-05-29T17:36:45;94978.13;;;25.33;26.33
9538;BME280;4807;48.024;11.726;2023-05-29T17:39:54;94969.31;;;24.46;28.02
9538;BME280;4807;48.024;11.726;2023-05-29T17:43:03;94973.06;;;23.82;29.91
9538;BME280;4807;48.024;11.726;2023-05-29T17:46:12;94978.91;;;23.06;31.12
9538;BME280;4807;48.024;11.726;2023-05-29T17:49:27;94985.78;;;22.73;31.92
9538;BME280;4807;48.024;11.726;2023-05-29T17:52:36;94979.09;;;22.20;31.66
9538;BME280;4807;48.024;11.726;2023-05-29T17:55:45;94982.34;;;21.97;33.04
9538;BME280;4807;48.024;11.726;2023-05-29T17:58:53;94988.53;;;21.77;33.53
9538;BME280;4807;48.024;11.726;2023-05-29T18:02:01;94986.88;;;21.56;33.90
9538;BME280;4807;48.024;11.726;2023-05-29T18:05:11;94986.56;;;21.37;34.12
9538;BME280;4807;48.024;11.726;2023-05-29T18:08:19;94987.28;;;21.12;35.19
9538;BME280;4807;48.024;11.726;2023-05-29T18:11:28;94996.41;;;21.01;34.40